Time;durP1;ratioP1;P1;durP2;ratioP2;P2;SDS_P1;SDS_P2;PMS_P1;PMS_P2;Temp;Humidity;BMP_temperature;BMP_pressure;BME280_temperature;BME280_humidity;BME280_pressure;Samples;Min_cycle;Max_cycle;Signal;HPM_P1;HPM_P2
2021/04/27 00:01:21;;;;;;;;;;;5.40;56.60;;;;;;10402607;28;19925;-67
2021/04/27 00:06:23;;;;;;;;;;;5.30;56.10;;;;;;10411326;28;19926;-68
2021/04/27 00:11:24;;;;;;;;;;;5.30;56.20;;;;;;10410489;28;19968;-68
2021/04/27 00:16:26;;;;;;;;;;;5.30;56.60;;;;;;10411114;28;19925;-67
2021/04/27 00:21:27;;;;;;;;;;;5.30;56.30;;;;;;10410849;28;19975;-68
2021/04/27 00:26:29;;;;;;;;;;;5.30;56.60;;;;;;10411645;28;20016;-68
2021/04/27 00:31:30;;;;;;;;;;;5.30;56.80;;;;;;10408498;28;19960;-68
2021/04/27 00:36:32;;;;;;;;;;;5.20;57.10;;;;;;10410009;28;19979;-68
2021/04/27 00:41:33;;;;;;;;;;;5.20;57.40;;;;;;10410261;28;20353;-68
2021/04/27 00:46:34;;;;;;;;;;;5.30;57.70;;;;;;10409502;28;20032;-67
2021/04/27 00:51:37;;;;;;;;;;;5.20;57.60;;;;;;10409863;28;19976;-68
2021/04/27 00:56:38;;;;;;;;;;;5.20;58.00;;;;;;10409216;28;19968;-68
2021/04/27 01:01:40;;;;;;;;;;;5.20;58.20;;;;;;10408470;28;19929;-68
2021/04/27 01:06:41;;;;;;;;;;;5.20;57.90;;;;;;10409604;28;19956;-68
2021/04/27 01:11:53;;;;;;;;;;;5.30;58.20;;;;;;10409681;28;19983;-68
2021/04/27 01:17:00;;;;;;;;;;;5.30;57.60;;;;;;10407674;28;20407;-68
2021/04/27 01:22:02;;;;;;;;;;;5.20;57.50;;;;;;10408684;28;19937;-68
2021/04/27 01:27:04;;;;;;;;;;;5.30;57.80;;;;;;10407525;28;20015;-68
2021/04/27 01:32:05;;;;;;;;;;;5.30;57.50;;;;;;10407737;28;20304;-69
2021/04/27 01:37:08;;;;;;;;;;;5.30;57.10;;;;;;10408838;28;20008;-68
2021/04/27 01:42:09;;;;;;;;;;;5.30;57.80;;;;;;10407820;28;20385;-68
2021/04/27 01:47:11;;;;;;;;;;;5.40;57.20;;;;;;10407167;28;19925;-69
2021/04/27 01:52:12;;;;;;;;;;;5.30;57.40;;;;;;10405874;28;19929;-68
2021/04/27 01:57:16;;;;;;;;;;;5.30;57.00;;;;;;10407304;28;20008;-69
2021/04/27 02:02:18;;;;;;;;;;;5.30;57.10;;;;;;10408888;28;19968;-68
2021/04/27 02:07:19;;;;;;;;;;;5.30;57.40;;;;;;10413966;28;20324;-68
2021/04/27 02:12:21;;;;;;;;;;;5.40;57.00;;;;;;10413603;28;19964;-68
2021/04/27 02:17:27;;;;;;;;;;;5.40;57.20;;;;;;10413291;28;20401;-69
2021/04/27 02:22:29;;;;;;;;;;;5.30;57.20;;;;;;10412787;28;20384;-68
2021/04/27 02:27:34;;;;;;;;;;;5.20;57.10;;;;;;10412791;28;20008;-68
2021/04/27 02:32:36;;;;;;;;;;;5.10;57.60;;;;;;10412508;28;19968;-68
2021/04/27 02:37:40;;;;;;;;;;;5.10;57.90;;;;;;10414056;28;20022;-69
2021/04/27 02:42:47;;;;;;;;;;;5.00;58.60;;;;;;10412989;28;20444;-68
2021/04/27 02:47:48;;;;;;;;;;;4.90;57.80;;;;;;10412138;28;20015;-68
2021/04/27 02:52:49;;;;;;;;;;;4.70;58.20;;;;;;10412405;28;20419;-69
2021/04/27 02:57:51;;;;;;;;;;;4.40;58.50;;;;;;10412048;28;19972;-68
2021/04/27 03:02:52;;;;;;;;;;;4.40;58.80;;;;;;10409041;28;20004;-68
2021/04/27 03:07:53;;;;;;;;;;;4.30;58.80;;;;;;10406941;28;20018;-68
2021/04/27 03:12:55;;;;;;;;;;;4.30;59.00;;;;;;10404397;28;20011;-69
2021/04/27 03:17:56;;;;;;;;;;;4.20;58.90;;;;;;10404629;28;19925;-68
2021/04/27 03:22:57;;;;;;;;;;;4.10;59.10;;;;;;10404010;28;20328;-68
2021/04/27 03:27:59;;;;;;;;;;;4.10;59.60;;;;;;10403952;28;19964;-68
2021/04/27 03:33:00;;;;;;;;;;;4.00;59.50;;;;;;10404381;28;19976;-68
2021/04/27 03:38:01;;;;;;;;;;;4.10;59.20;;;;;;10405072;28;20019;-69
2021/04/27 03:43:03;;;;;;;;;;;4.00;59.80;;;;;;10411683;28;20427;-68
2021/04/27 03:48:09;;;;;;;;;;;4.00;60.50;;;;;;10412442;28;20358;-68
2021/04/27 03:53:10;;;;;;;;;;;4.00;60.50;;;;;;10411906;28;20424;-68
2021/04/27 03:58:12;;;;;;;;;;;3.80;60.20;;;;;;10410476;28;20457;-68
2021/04/27 04:03:13;;;;;;;;;;;3.80;60.80;;;;;;10411699;28;20008;-69
2021/04/27 04:08:14;;;;;;;;;;;3.80;61.50;;;;;;10411643;28;20437;-68
2021/04/27 04:13:16;;;;;;;;;;;3.90;61.50;;;;;;10410810;28;20411;-69
2021/04/27 04:18:17;;;;;;;;;;;3.90;62.00;;;;;;10410148;28;20020;-69
2021/04/27 04:23:18;;;;;;;;;;;3.80;62.30;;;;;;10409865;28;20023;-69
2021/04/27 04:28:20;;;;;;;;;;;3.80;61.30;;;;;;10410664;28;20000;-69
2021/04/27 04:33:21;;;;;;;;;;;3.80;62.30;;;;;;10410864;28;19969;-68
2021/04/27 04:38:23;;;;;;;;;;;3.80;62.80;;;;;;10410262;28;20016;-69
2021/04/27 04:43:24;;;;;;;;;;;4.00;63.20;;;;;;10409376;28;20289;-68
2021/04/27 04:48:26;;;;;;;;;;;4.10;62.30;;;;;;10406296;28;19935;-68
2021/04/27 04:53:27;;;;;;;;;;;6.30;59.60;;;;;;10394760;28;19983;-69
2021/04/27 04:58:28;;;;;;;;;;;8.60;53.70;;;;;;10409547;28;20016;-69
2021/04/27 05:03:29;;;;;;;;;;;8.70;52.40;;;;;;10409951;28;20023;-69
2021/04/27 05:08:41;;;;;;;;;;;10.30;49.00;;;;;;10409502;28;20386;-61
2021/04/27 05:13:42;;;;;;;;;;;9.50;47.90;;;;;;10400734;28;19925;-61
2021/04/27 05:18:43;;;;;;;;;;;7.90;50.80;;;;;;10418723;28;20019;-61
2021/04/27 05:23:45;;;;;;;;;;;7.20;52.20;;;;;;10449695;28;19995;-61
2021/04/27 05:28:46;;;;;;;;;;;7.00;53.40;;;;;;10447800;28;20046;-60
2021/04/27 05:33:47;;;;;;;;;;;6.70;53.10;;;;;;10449995;28;19989;-61
2021/04/27 05:38:49;;;;;;;;;;;6.30;52.90;;;;;;10449826;28;20019;-61
2021/04/27 05:43:51;;;;;;;;;;;5.90;54.30;;;;;;10448059;28;20337;-61
2021/04/27 05:48:52;;;;;;;;;;;6.00;55.40;;;;;;10448803;28;20004;-61
2021/04/27 05:53:54;;;;;;;;;;;5.70;54.00;;;;;;10449214;28;19931;-60
2021/04/27 05:58:55;;;;;;;;;;;5.40;55.20;;;;;;10448987;28;19937;-61
2021/04/27 06:03:57;;;;;;;;;;;5.20;54.90;;;;;;10455852;28;19974;-60
2021/04/27 06:08:58;;;;;;;;;;;5.00;55.70;;;;;;10459341;28;20300;-60
2021/04/27 06:14:00;;;;;;;;;;;5.00;55.80;;;;;;10462436;28;20488;-60
2021/04/27 06:19:02;;;;;;;;;;;5.10;56.30;;;;;;10448788;28;20043;-60
2021/04/27 06:24:03;;;;;;;;;;;5.20;55.40;;;;;;10458183;28;20003;-60
2021/04/27 06:29:05;;;;;;;;;;;5.30;55.20;;;;;;10445005;28;20428;-60
2021/04/27 06:34:06;;;;;;;;;;;5.60;55.00;;;;;;10446422;28;20016;-60
2021/04/27 06:39:09;;;;;;;;;;;5.70;54.60;;;;;;10479201;28;19980;-60
2021/04/27 06:44:10;;;;;;;;;;;6.00;54.60;;;;;;10486622;28;19924;-60
2021/04/27 06:49:11;;;;;;;;;;;6.10;53.70;;;;;;10447056;28;20464;-61
2021/04/27 06:54:13;;;;;;;;;;;6.20;53.40;;;;;;10445244;28;19974;-61
2021/04/27 06:59:16;;;;;;;;;;;6.20;54.30;;;;;;10445247;28;20016;-60
2021/04/27 07:04:17;;;;;;;;;;;6.30;54.10;;;;;;10444960;28;19924;-60
2021/04/27 07:09:19;;;;;;;;;;;6.50;53.20;;;;;;10444896;28;20059;-61
2021/04/27 07:14:21;;;;;;;;;;;6.50;53.50;;;;;;10444249;28;20044;-60
2021/04/27 07:19:23;;;;;;;;;;;6.70;52.70;;;;;;10443763;28;20008;-60
2021/04/27 07:24:25;;;;;;;;;;;7.00;52.20;;;;;;10460214;28;20320;-61
2021/04/27 07:29:26;;;;;;;;;;;7.10;51.50;;;;;;10446651;28;19925;-61
2021/04/27 07:34:27;;;;;;;;;;;7.40;50.20;;;;;;10444453;28;19963;-61
2021/04/27 07:39:29;;;;;;;;;;;7.80;50.20;;;;;;10473818;28;19931;-60
2021/04/27 07:44:30;;;;;;;;;;;8.80;49.80;;;;;;10473192;28;20373;-61
2021/04/27 07:49:31;;;;;;;;;;;9.80;47.20;;;;;;10475391;28;20312;-61
2021/04/27 07:54:33;;;;;;;;;;;10.60;44.60;;;;;;10444687;28;20036;-61
2021/04/27 07:59:34;;;;;;;;;;;10.90;44.50;;;;;;10443757;28;20021;-61
2021/04/27 08:04:35;;;;;;;;;;;11.40;45.10;;;;;;10444127;28;19925;-61
2021/04/27 08:09:37;;;;;;;;;;;11.50;42.50;;;;;;10444493;28;19935;-61
2021/04/27 08:14:38;;;;;;;;;;;11.30;41.80;;;;;;10443209;28;20373;-61
2021/04/27 08:19:40;;;;;;;;;;;11.10;42.00;;;;;;10444388;28;19929;-61
2021/04/27 08:24:44;;;;;;;;;;;11.60;43.40;;;;;;10447067;28;19975;-61
2021/04/27 08:29:46;;;;;;;;;;;11.70;42.10;;;;;;10408700;28;20438;-61
2021/04/27 08:34:47;;;;;;;;;;;12.40;42.00;;;;;;10440956;28;19956;-61
2021/04/27 08:39:49;;;;;;;;;;;12.30;40.40;;;;;;10451408;28;19929;-61
2021/04/27 08:44:51;;;;;;;;;;;12.80;41.10;;;;;;10451147;28;19925;-61
2021/04/27 08:49:52;;;;;;;;;;;12.90;39.20;;;;;;10450647;28;19972;-61
2021/04/27 08:54:54;;;;;;;;;;;12.70;38.40;;;;;;10451840;28;20380;-61
2021/04/27 08:59:56;;;;;;;;;;;12.60;38.90;;;;;;10449054;28;20405;-61
2021/04/27 09:04:57;;;;;;;;;;;12.40;38.80;;;;;;10451762;28;20403;-61
2021/04/27 09:10:12;;;;;;;;;;;12.80;39.80;;;;;;10451279;28;19971;-61
2021/04/27 09:15:21;;;;;;;;;;;13.50;37.90;;;;;;10450384;28;19925;-61
2021/04/27 09:20:23;;;;;;;;;;;13.80;38.00;;;;;;10451065;28;20027;-61
2021/04/27 09:25:24;;;;;;;;;;;14.40;37.50;;;;;;10449387;28;19933;-61
2021/04/27 09:30:28;;;;;;;;;;;14.30;36.50;;;;;;10448583;28;19972;-61
2021/04/27 09:35:55;;;;;;;;;;;14.50;37.00;;;;;;10449225;28;19982;-61
2021/04/27 09:41:01;;;;;;;;;;;14.60;36.50;;;;;;10448731;28;19980;-61
2021/04/27 09:46:03;;;;;;;;;;;14.50;37.70;;;;;;10448543;28;20403;-61
2021/04/27 09:51:05;;;;;;;;;;;14.60;35.60;;;;;;10449588;28;19956;-61
2021/04/27 09:56:06;;;;;;;;;;;14.60;36.60;;;;;;10449329;28;19929;-61
2021/04/27 10:01:11;;;;;;;;;;;14.80;36.00;;;;;;10447936;28;20040;-61
2021/04/27 10:06:12;;;;;;;;;;;14.70;35.30;;;;;;10441380;28;19976;-61
2021/04/27 10:11:14;;;;;;;;;;;14.80;37.20;;;;;;10447593;28;20380;-61
2021/04/27 10:16:17;;;;;;;;;;;14.70;35.10;;;;;;10446824;28;20400;-61
2021/04/27 10:21:19;;;;;;;;;;;14.50;35.20;;;;;;10447492;28;20385;-61
2021/04/27 10:26:25;;;;;;;;;;;15.10;36.10;;;;;;10447797;28;19964;-61
2021/04/27 10:31:27;;;;;;;;;;;14.90;35.40;;;;;;10446147;28;19959;-61
2021/04/27 10:36:29;;;;;;;;;;;14.60;34.60;;;;;;10447274;28;20391;-61
2021/04/27 10:41:46;;;;;;;;;;;14.70;36.10;;;;;;10446816;28;19933;-61
2021/04/27 10:46:49;;;;;;;;;;;14.70;34.80;;;;;;10446094;28;20348;-61
2021/04/27 10:51:52;;;;;;;;;;;14.20;36.30;;;;;;10446263;28;20369;-61
2021/04/27 10:57:05;;;;;;;;;;;14.30;34.70;;;;;;10446840;28;20020;-61
2021/04/27 11:02:11;;;;;;;;;;;14.10;34.40;;;;;;10445662;28;20389;-61
2021/04/27 11:07:24;;;;;;;;;;;14.10;34.90;;;;;;10445747;28;19936;-61
2021/04/27 11:12:28;;;;;;;;;;;14.50;35.00;;;;;;10441308;28;19925;-61
2021/04/27 11:17:31;;;;;;;;;;;14.40;34.80;;;;;;10423848;28;19952;-61
2021/04/27 11:22:34;;;;;;;;;;;14.50;34.40;;;;;;10441313;28;20411;-61
2021/04/27 11:27:38;;;;;;;;;;;14.40;35.40;;;;;;10444857;28;19964;-61
2021/04/27 11:32:44;;;;;;;;;;;14.50;36.20;;;;;;10440055;28;20210;-61
2021/04/27 11:37:48;;;;;;;;;;;14.90;35.50;;;;;;10443864;28;19924;-61
2021/04/27 11:42:51;;;;;;;;;;;14.80;34.10;;;;;;10440688;28;19931;-61
2021/04/27 11:47:52;;;;;;;;;;;14.60;34.70;;;;;;10441344;28;19982;-61
2021/04/27 11:53:05;;;;;;;;;;;14.70;33.40;;;;;;10439503;28;20015;-61
2021/04/27 11:58:06;;;;;;;;;;;14.70;33.90;;;;;;10431137;28;19971;-61
2021/04/27 12:03:14;;;;;;;;;;;14.90;33.90;;;;;;10452842;28;19975;-62
2021/04/27 12:08:16;;;;;;;;;;;14.90;34.00;;;;;;10443991;28;19972;-61
2021/04/27 12:13:22;;;;;;;;;;;15.10;34.20;;;;;;10446541;28;19971;-61
2021/04/27 12:18:23;;;;;;;;;;;15.30;33.80;;;;;;10437709;28;19972;-61
2021/04/27 12:23:24;;;;;;;;;;;15.00;33.00;;;;;;10448818;28;19924;-62
2021/04/27 12:28:27;;;;;;;;;;;15.10;32.40;;;;;;10445747;28;19929;-61
2021/04/27 12:33:28;;;;;;;;;;;15.40;34.60;;;;;;10429044;28;19935;-61
2021/04/27 12:38:35;;;;;;;;;;;15.20;32.80;;;;;;10445660;28;19929;-61
2021/04/27 12:43:39;;;;;;;;;;;15.10;33.70;;;;;;10439116;28;19940;-61
2021/04/27 12:48:42;;;;;;;;;;;15.30;33.20;;;;;;10431491;28;19990;-61
2021/04/27 12:53:44;;;;;;;;;;;15.50;32.00;;;;;;10447808;28;19932;-61
2021/04/27 12:58:47;;;;;;;;;;;15.50;32.10;;;;;;10450465;28;20381;-61
2021/04/27 13:03:49;;;;;;;;;;;15.30;31.70;;;;;;10438219;28;19972;-62
2021/04/27 13:09:10;;;;;;;;;;;15.60;31.80;;;;;;10450207;28;20012;-61
2021/04/27 13:14:18;;;;;;;;;;;15.90;32.30;;;;;;10451266;28;19968;-61
2021/04/27 13:19:19;;;;;;;;;;;15.40;31.80;;;;;;10450568;28;20905;-61
2021/04/27 13:24:21;;;;;;;;;;;15.20;32.50;;;;;;10448578;28;19928;-61
2021/04/27 13:29:22;;;;;;;;;;;15.60;33.70;;;;;;10451068;28;20016;-61
2021/04/27 13:34:24;;;;;;;;;;;16.10;32.00;;;;;;10449299;28;19925;-61
2021/04/27 13:39:25;;;;;;;;;;;16.40;32.40;;;;;;10449658;28;20350;-61
2021/04/27 13:44:26;;;;;;;;;;;15.90;30.70;;;;;;10449496;28;20036;-61
2021/04/27 13:49:28;;;;;;;;;;;16.00;33.00;;;;;;10449911;28;19987;-61
2021/04/27 13:54:29;;;;;;;;;;;16.00;32.90;;;;;;10448828;28;19971;-62
2021/04/27 13:59:30;;;;;;;;;;;16.40;31.40;;;;;;10447987;28;20409;-62
2021/04/27 14:04:31;;;;;;;;;;;16.60;31.60;;;;;;10448490;28;19925;-61
2021/04/27 14:09:33;;;;;;;;;;;16.70;31.80;;;;;;10448894;28;19925;-62
2021/04/27 14:14:34;;;;;;;;;;;16.60;31.00;;;;;;10448515;28;20003;-62
2021/04/27 14:19:35;;;;;;;;;;;16.30;30.80;;;;;;10448346;28;20475;-62
2021/04/27 14:24:37;;;;;;;;;;;16.40;32.00;;;;;;10447337;28;20447;-62
2021/04/27 14:29:47;;;;;;;;;;;16.50;31.60;;;;;;10447176;28;19925;-61
2021/04/27 14:34:48;;;;;;;;;;;16.30;31.00;;;;;;10447096;28;20020;-62
2021/04/27 14:39:52;;;;;;;;;;;16.50;31.40;;;;;;10447837;28;20695;-62
2021/04/27 14:44:53;;;;;;;;;;;16.60;30.50;;;;;;10446512;28;19925;-62
2021/04/27 14:49:55;;;;;;;;;;;16.70;30.40;;;;;;10447303;28;20032;-62
2021/04/27 14:54:56;;;;;;;;;;;16.70;29.80;;;;;;10446466;28;20023;-62
2021/04/27 14:59:57;;;;;;;;;;;16.60;29.90;;;;;;10446215;28;20011;-62
2021/04/27 15:05:00;;;;;;;;;;;16.40;29.70;;;;;;10445010;28;19924;-62
2021/04/27 15:10:03;;;;;;;;;;;16.30;29.90;;;;;;10445977;28;20015;-62
2021/04/27 15:15:06;;;;;;;;;;;16.30;30.10;;;;;;10432260;28;20374;-62
2021/04/27 15:20:08;;;;;;;;;;;16.40;29.80;;;;;;10444852;28;20356;-62
2021/04/27 15:25:11;;;;;;;;;;;16.30;30.60;;;;;;10415705;28;19933;-62
2021/04/27 15:30:14;;;;;;;;;;;16.50;30.80;;;;;;10436751;28;20389;-62
2021/04/27 15:35:17;;;;;;;;;;;16.50;30.20;;;;;;10435182;28;19925;-62
2021/04/27 15:40:21;;;;;;;;;;;16.50;30.60;;;;;;10430569;28;20023;-62
2021/04/27 15:45:22;;;;;;;;;;;16.40;29.70;;;;;;10418034;28;20016;-62
2021/04/27 15:50:28;;;;;;;;;;;16.20;30.70;;;;;;10415179;28;20003;-62
2021/04/27 15:55:30;;;;;;;;;;;16.40;29.90;;;;;;10418492;28;19972;-62
2021/04/27 16:00:33;;;;;;;;;;;16.50;30.00;;;;;;10452994;28;20369;-62
2021/04/27 16:05:34;;;;;;;;;;;16.60;31.40;;;;;;10444331;28;20024;-62
2021/04/27 16:10:36;;;;;;;;;;;16.60;31.50;;;;;;10443755;28;19924;-62
2021/04/27 16:15:37;;;;;;;;;;;16.60;30.60;;;;;;10443336;28;20273;-62
2021/04/27 16:20:39;;;;;;;;;;;16.40;30.80;;;;;;10443251;28;19971;-61
2021/04/27 16:25:40;;;;;;;;;;;16.30;30.00;;;;;;10444759;28;19931;-62
2021/04/27 16:30:42;;;;;;;;;;;16.10;30.00;;;;;;10443670;28;20015;-62
2021/04/27 16:35:43;;;;;;;;;;;16.10;29.50;;;;;;10443229;28;20491;-61
2021/04/27 16:40:45;;;;;;;;;;;16.20;31.10;;;;;;10443349;28;20016;-62
2021/04/27 16:45:46;;;;;;;;;;;16.20;30.80;;;;;;10446124;28;19935;-62
2021/04/27 16:50:48;;;;;;;;;;;16.00;31.70;;;;;;10450483;28;19972;-62
2021/04/27 16:55:49;;;;;;;;;;;16.10;31.80;;;;;;10449784;28;19957;-62
2021/04/27 17:00:51;;;;;;;;;;;16.10;31.00;;;;;;10449977;28;20015;-61
2021/04/27 17:05:52;;;;;;;;;;;16.00;32.40;;;;;;10429150;28;19925;-61
2021/04/27 17:10:53;;;;;;;;;;;16.00;31.80;;;;;;10433112;28;20551;-62
2021/04/27 17:15:54;;;;;;;;;;;15.90;31.70;;;;;;10421601;28;20020;-61
2021/04/27 17:20:56;;;;;;;;;;;15.70;31.00;;;;;;10443286;28;19968;-61
2021/04/27 17:25:57;;;;;;;;;;;15.60;31.90;;;;;;10433918;28;19976;-62
2021/04/27 17:30:59;;;;;;;;;;;15.40;31.20;;;;;;10446984;28;19952;-61
2021/04/27 17:36:00;;;;;;;;;;;15.20;31.40;;;;;;10442404;28;20013;-61
2021/04/27 17:41:01;;;;;;;;;;;15.00;31.60;;;;;;10441268;28;19931;-61
2021/04/27 17:46:03;;;;;;;;;;;14.90;31.70;;;;;;10448020;28;19925;-61
2021/04/27 17:51:04;;;;;;;;;;;14.80;32.20;;;;;;10449123;28;20023;-61
2021/04/27 17:56:06;;;;;;;;;;;14.70;32.20;;;;;;10447761;28;19990;-61
2021/04/27 18:01:07;;;;;;;;;;;14.70;33.00;;;;;;10448266;28;19974;-67
2021/04/27 18:06:09;;;;;;;;;;;14.50;33.20;;;;;;10421966;28;20031;-67
2021/04/27 18:11:10;;;;;;;;;;;14.40;33.60;;;;;;10445330;28;19935;-67
2021/04/27 18:16:12;;;;;;;;;;;14.10;34.00;;;;;;10434219;28;20433;-67
2021/04/27 18:21:13;;;;;;;;;;;13.90;34.50;;;;;;10447592;28;20008;-67
2021/04/27 18:26:14;;;;;;;;;;;13.80;34.90;;;;;;10439486;28;19933;-67
2021/04/27 18:31:16;;;;;;;;;;;13.60;35.60;;;;;;10419522;28;20277;-67
2021/04/27 18:36:18;;;;;;;;;;;13.40;36.50;;;;;;10425174;28;19939;-67
2021/04/27 18:41:19;;;;;;;;;;;13.10;36.70;;;;;;10424754;28;19931;-67
2021/04/27 18:46:20;;;;;;;;;;;12.90;37.60;;;;;;10431772;28;19986;-67
2021/04/27 18:51:22;;;;;;;;;;;12.80;38.10;;;;;;10449105;28;19925;-68
2021/04/27 18:56:23;;;;;;;;;;;12.60;37.90;;;;;;10445892;28;20359;-67
2021/04/27 19:01:25;;;;;;;;;;;12.40;38.20;;;;;;10444089;28;19960;-67
2021/04/27 19:06:26;;;;;;;;;;;12.40;38.90;;;;;;10460231;28;20393;-67
2021/04/27 19:11:34;;;;;;;;;;;12.20;40.00;;;;;;10441432;28;19944;-67
2021/04/27 19:16:37;;;;;;;;;;;12.00;40.50;;;;;;10445078;28;20024;-67
2021/04/27 19:21:38;;;;;;;;;;;11.80;41.20;;;;;;10444730;28;19925;-67
2021/04/27 19:26:39;;;;;;;;;;;11.60;42.00;;;;;;10443703;28;20011;-67
2021/04/27 19:31:41;;;;;;;;;;;11.50;42.30;;;;;;10443934;28;20015;-67
2021/04/27 19:36:42;;;;;;;;;;;11.30;42.80;;;;;;10445217;28;19925;-67
2021/04/27 19:41:44;;;;;;;;;;;11.10;43.00;;;;;;10444391;28;19963;-67
2021/04/27 19:46:45;;;;;;;;;;;11.00;42.90;;;;;;10443833;28;20496;-67
2021/04/27 19:51:47;;;;;;;;;;;10.90;44.00;;;;;;10444965;28;19928;-67
2021/04/27 19:56:48;;;;;;;;;;;10.80;44.00;;;;;;10444731;28;20519;-67
2021/04/27 20:01:49;;;;;;;;;;;10.60;44.50;;;;;;10443330;28;19947;-67
2021/04/27 20:06:51;;;;;;;;;;;10.50;45.30;;;;;;10443235;28;20327;-67
2021/04/27 20:11:52;;;;;;;;;;;10.40;46.20;;;;;;10442669;28;19929;-67
2021/04/27 20:16:53;;;;;;;;;;;10.20;47.60;;;;;;10443350;28;20358;-67
2021/04/27 20:21:55;;;;;;;;;;;10.10;47.50;;;;;;10448241;28;19925;-67
2021/04/27 20:26:56;;;;;;;;;;;10.00;47.20;;;;;;10452180;28;19968;-67
2021/04/27 20:31:58;;;;;;;;;;;10.00;47.30;;;;;;10451875;28;19924;-67
2021/04/27 20:37:00;;;;;;;;;;;10.00;47.20;;;;;;10452739;28;20280;-66
2021/04/27 20:42:02;;;;;;;;;;;9.90;47.50;;;;;;10451511;28;20328;-66
2021/04/27 20:47:05;;;;;;;;;;;9.70;47.50;;;;;;10450239;28;20016;-66
2021/04/27 20:52:08;;;;;;;;;;;9.60;48.00;;;;;;10451005;28;19924;-66
2021/04/27 20:57:10;;;;;;;;;;;9.50;48.60;;;;;;10450447;28;20043;-66
2021/04/27 21:02:11;;;;;;;;;;;9.30;49.10;;;;;;10450742;28;19987;-66
2021/04/27 21:07:13;;;;;;;;;;;9.20;49.60;;;;;;10449356;28;19925;-66
2021/04/27 21:12:14;;;;;;;;;;;9.10;49.50;;;;;;10450894;28;20011;-66
2021/04/27 21:17:15;;;;;;;;;;;8.90;50.50;;;;;;10449729;28;20028;-66
2021/04/27 21:22:17;;;;;;;;;;;8.80;51.00;;;;;;10449958;28;20455;-66
2021/04/27 21:27:18;;;;;;;;;;;8.70;50.80;;;;;;10449759;28;19979;-66
2021/04/27 21:32:19;;;;;;;;;;;8.70;50.80;;;;;;10450202;28;20047;-66
2021/04/27 21:37:20;;;;;;;;;;;8.60;51.00;;;;;;10449743;28;19971;-66
2021/04/27 21:42:22;;;;;;;;;;;8.60;51.00;;;;;;10449758;28;19974;-66
2021/04/27 21:47:23;;;;;;;;;;;8.50;50.90;;;;;;10449165;28;20351;-66
2021/04/27 21:52:24;;;;;;;;;;;8.40;51.40;;;;;;10449484;28;20408;-66
2021/04/27 21:57:26;;;;;;;;;;;8.30;51.40;;;;;;10426885;28;19925;-66
2021/04/27 22:02:27;;;;;;;;;;;8.30;51.80;;;;;;10447515;28;19975;-66
2021/04/27 22:07:28;;;;;;;;;;;8.20;52.50;;;;;;10448804;28;19931;-66
2021/04/27 22:12:30;;;;;;;;;;;8.10;52.00;;;;;;10446673;28;20035;-66
2021/04/27 22:17:31;;;;;;;;;;;8.10;52.20;;;;;;10447966;28;20012;-66
2021/04/27 22:22:32;;;;;;;;;;;8.10;52.30;;;;;;10447094;28;19925;-67
2021/04/27 22:27:34;;;;;;;;;;;7.90;52.90;;;;;;10447286;28;19931;-66
2021/04/27 22:32:35;;;;;;;;;;;7.90;52.70;;;;;;10447112;28;20023;-66
2021/04/27 22:37:36;;;;;;;;;;;8.00;52.50;;;;;;10447533;28;20032;-66
2021/04/27 22:42:38;;;;;;;;;;;7.90;52.70;;;;;;10446656;28;19979;-66
2021/04/27 22:47:40;;;;;;;;;;;7.80;52.50;;;;;;10445987;28;19980;-66
2021/04/27 22:52:41;;;;;;;;;;;7.80;52.80;;;;;;10445900;28;19925;-66
2021/04/27 22:57:42;;;;;;;;;;;7.80;52.60;;;;;;10446477;28;20393;-66
2021/04/27 23:02:44;;;;;;;;;;;7.70;53.30;;;;;;10445881;28;19968;-66
2021/04/27 23:07:45;;;;;;;;;;;7.60;54.00;;;;;;10445343;28;20023;-66
2021/04/27 23:12:47;;;;;;;;;;;7.50;54.10;;;;;;10446001;28;20016;-66
2021/04/27 23:17:48;;;;;;;;;;;7.40;54.60;;;;;;10446126;28;20012;-67
2021/04/27 23:22:50;;;;;;;;;;;7.20;55.70;;;;;;10445893;28;19960;-67
2021/04/27 23:27:52;;;;;;;;;;;7.20;56.00;;;;;;10445169;28;19925;-66
2021/04/27 23:32:54;;;;;;;;;;;7.00;56.30;;;;;;10445739;28;19925;-66
2021/04/27 23:37:55;;;;;;;;;;;7.00;56.70;;;;;;10445587;28;19974;-67
2021/04/27 23:42:57;;;;;;;;;;;6.90;57.20;;;;;;10444711;28;19971;-67
2021/04/27 23:48:01;;;;;;;;;;;6.50;59.40;;;;;;10445705;28;19975;-68
2021/04/27 23:53:03;;;;;;;;;;;6.30;60.20;;;;;;10445219;28;19933;-67
2021/04/27 23:58:04;;;;;;;;;;;6.30;60.70;;;;;;10451635;28;20481;-67
